Time;durP1;ratioP1;P1;durP2;ratioP2;P2;SDS_P1;SDS_P2;PMS_P1;PMS_P2;Temp;Humidity;BMP_temperature;BMP_pressure;BME280_temperature;BME280_humidity;BME280_pressure;Samples;Min_cycle;Max_cycle;Signal;HPM_P1;HPM_P2
2023/09/08 00:00:42;;;;;;;16.10;11.40;;;;;;;14.74;76.00;101124.96;131024;1253;107676;-79
2023/09/08 00:04:07;;;;;;;15.00;12.00;;;;;;;14.72;76.08;101124.45;131181;1255;107752;-78
2023/09/08 00:07:13;;;;;;;13.00;11.40;;;;;;;14.70;76.20;101128.46;131190;1250;106943;-78
2023/09/08 00:10:18;;;;;;;13.80;11.80;;;;;;;14.67;76.19;101122.70;131040;1252;107161;-78
2023/09/08 00:13:24;;;;;;;13.50;11.10;;;;;;;14.63;76.18;101123.84;131131;1250;105818;-79
2023/09/08 00:16:30;;;;;;;15.10;10.70;;;;;;;14.59;76.29;101122.96;131168;1253;107528;-79
2023/09/08 00:19:36;;;;;;;13.50;10.60;;;;;;;14.57;76.23;101125.30;131088;1254;108333;-78
2023/09/08 00:22:41;;;;;;;16.30;11.70;;;;;;;14.56;76.16;101127.16;131118;1252;106664;-78
2023/09/08 00:25:47;;;;;;;15.30;11.20;;;;;;;14.55;76.38;101118.84;131084;1255;108725;-78
2023/09/08 00:28:52;;;;;;;13.50;11.10;;;;;;;14.51;76.37;101112.23;131144;1253;108615;-78
2023/09/08 00:31:58;;;;;;;13.70;11.60;;;;;;;14.49;76.30;101110.14;131133;1249;106668;-78
2023/09/08 00:35:06;;;;;;;12.70;11.40;;;;;;;14.45;76.19;101111.27;131144;1252;107624;-78
2023/09/08 00:38:12;;;;;;;13.80;11.20;;;;;;;14.41;76.26;101108.28;131076;1250;106787;-78
2023/09/08 00:41:17;;;;;;;16.10;11.60;;;;;;;14.37;76.19;101109.72;131066;1255;107750;-78
2023/09/08 00:44:23;;;;;;;13.00;11.20;;;;;;;14.30;76.18;101105.45;131090;1253;106600;-78
2023/09/08 00:47:28;;;;;;;13.00;10.30;;;;;;;14.26;76.25;101104.67;131114;1252;107262;-78
2023/09/08 00:50:35;;;;;;;12.60;10.60;;;;;;;14.24;76.27;101105.38;131108;1255;108334;-78
2023/09/08 00:53:41;;;;;;;15.00;11.00;;;;;;;14.24;76.31;101105.40;131152;1253;107658;-78
2023/09/08 00:56:47;;;;;;;13.20;10.60;;;;;;;14.23;76.46;101106.20;130958;1251;171307;-79
2023/09/08 00:59:53;;;;;;;14.30;12.50;;;;;;;14.22;76.32;101102.00;131113;1253;106980;-78
2023/09/08 01:02:59;;;;;;;13.10;11.30;;;;;;;14.22;76.42;101101.52;131132;1251;108616;-78
2023/09/08 01:06:06;;;;;;;12.40;11.10;;;;;;;14.19;76.31;101101.05;131134;1254;107306;-78
2023/09/08 01:09:13;;;;;;;13.70;11.40;;;;;;;14.16;76.31;101102.29;131144;1253;106869;-78
2023/09/08 01:12:19;;;;;;;12.30;10.00;;;;;;;14.11;76.45;101101.10;131176;1251;107429;-78
2023/09/08 01:15:25;;;;;;;11.80;10.10;;;;;;;14.08;76.39;101100.71;131087;1250;108060;-78
2023/09/08 01:18:31;;;;;;;11.70;10.10;;;;;;;14.06;76.53;101099.86;131056;1253;107526;-78
2023/09/08 01:22:22;;;;;;;13.30;10.90;;;;;;;14.06;76.56;101093.55;131124;1264;107874;-78
2023/09/08 01:25:29;;;;;;;15.10;11.40;;;;;;;14.06;76.55;101093.80;131200;1264;108562;-78
2023/09/08 01:28:36;;;;;;;12.90;10.90;;;;;;;14.08;76.60;101092.48;131173;1249;107200;-78
2023/09/08 01:31:42;;;;;;;13.60;10.60;;;;;;;14.07;76.44;101095.30;131132;1254;107560;-78
2023/09/08 01:34:48;;;;;;;13.60;10.70;;;;;;;14.02;76.84;101090.90;131132;1249;107620;-77
2023/09/08 01:37:54;;;;;;;13.90;11.20;;;;;;;13.98;76.50;101091.31;131088;1251;106862;-78
2023/09/08 01:41:01;;;;;;;12.70;9.90;;;;;;;13.92;76.92;101092.10;131099;1250;107492;-78
2023/09/08 01:44:10;;;;;;;12.40;10.00;;;;;;;13.89;76.87;101088.45;131066;1256;106883;-78
2023/09/08 01:47:15;;;;;;;13.40;9.60;;;;;;;13.88;76.90;101086.60;131036;1257;106887;-78
2023/09/08 01:50:22;;;;;;;13.10;10.70;;;;;;;13.89;76.71;101092.40;131059;1255;107643;-78
2023/09/08 01:53:27;;;;;;;12.90;10.40;;;;;;;13.91;76.82;101089.40;131073;1254;107006;-79
2023/09/08 01:56:33;;;;;;;12.30;10.40;;;;;;;13.90;76.80;101090.93;131129;1252;106839;-79
2023/09/08 01:59:38;;;;;;;12.60;10.20;;;;;;;13.88;76.77;101087.94;131072;1255;106975;-80
2023/09/08 02:02:44;;;;;;;11.60;10.20;;;;;;;13.85;76.92;101089.78;131111;1253;106732;-80
2023/09/08 02:05:50;;;;;;;13.60;10.00;;;;;;;13.83;76.85;101092.00;131129;1261;106566;-80
2023/09/08 02:08:56;;;;;;;12.00;9.80;;;;;;;13.79;76.84;101087.41;131023;1264;107124;-80
2023/09/08 02:12:02;;;;;;;13.50;9.40;;;;;;;13.74;77.04;101084.59;131106;1264;107064;-78
2023/09/08 02:15:11;;;;;;;12.50;10.30;;;;;;;13.74;76.99;101088.20;131189;1254;106383;-78
2023/09/08 02:18:17;;;;;;;10.50;9.10;;;;;;;13.74;77.16;101085.10;131137;1256;107188;-78
2023/09/08 02:21:23;;;;;;;13.30;10.90;;;;;;;13.74;76.91;101082.41;131113;1252;107553;-78
2023/09/08 02:24:29;;;;;;;12.10;10.50;;;;;;;13.74;77.07;101082.30;131188;1252;107520;-79
2023/09/08 02:27:34;;;;;;;12.40;10.60;;;;;;;13.73;77.03;101076.70;131349;1253;107624;-79
2023/09/08 02:30:40;;;;;;;11.40;9.80;;;;;;;13.71;77.15;101075.78;131211;1253;106976;-80
2023/09/08 02:33:46;;;;;;;11.60;10.20;;;;;;;13.69;77.04;101075.60;131184;1254;108722;-77
2023/09/08 02:36:51;;;;;;;12.90;10.30;;;;;;;13.64;76.91;101071.90;131154;1252;108642;-78
2023/09/08 02:39:59;;;;;;;13.50;10.00;;;;;;;13.59;76.96;101070.06;131050;1255;108651;-77
2023/09/08 02:43:05;;;;;;;10.80;9.10;;;;;;;13.54;77.01;101065.66;131564;1252;107451;-78
2023/09/08 02:46:11;;;;;;;11.00;8.80;;;;;;;13.53;77.00;101062.94;131384;1252;107465;-77
2023/09/08 02:49:17;;;;;;;11.30;9.80;;;;;;;13.55;77.19;101060.27;131042;1256;108776;-77
2023/09/08 02:52:23;;;;;;;12.90;9.40;;;;;;;13.56;77.16;101057.97;131013;1252;107830;-78
2023/09/08 02:55:29;;;;;;;12.10;10.10;;;;;;;13.55;77.23;101059.54;131047;1262;106544;-78
2023/09/08 02:58:35;;;;;;;12.70;9.90;;;;;;;13.52;77.30;101053.21;131001;1253;107114;-77
2023/09/08 03:01:40;;;;;;;12.50;9.80;;;;;;;13.49;77.34;101055.09;131024;1256;108597;-77
2023/09/08 03:04:46;;;;;;;12.10;10.30;;;;;;;13.46;77.28;101054.52;131087;1252;107878;-77
2023/09/08 03:07:51;;;;;;;15.30;10.20;;;;;;;13.43;77.39;101058.95;130974;1263;108203;-77
2023/09/08 03:11:00;;;;;;;12.90;9.10;;;;;;;13.41;77.26;101059.66;131074;1263;107757;-76
2023/09/08 03:14:05;;;;;;;11.20;9.00;;;;;;;13.40;77.34;101059.25;131129;1253;107594;-76
2023/09/08 03:17:11;;;;;;;12.90;9.60;;;;;;;13.40;77.29;101058.65;130998;1263;108553;-76
2023/09/08 03:20:16;;;;;;;11.40;10.00;;;;;;;13.41;77.33;101054.46;131115;1264;107638;-76
2023/09/08 03:23:22;;;;;;;12.50;10.00;;;;;;;13.41;77.45;101055.51;131029;1252;106868;-75
2023/09/08 03:26:27;;;;;;;14.40;10.50;;;;;;;13.39;77.35;101056.63;131076;1252;106934;-76
2023/09/08 03:29:33;;;;;;;13.70;10.30;;;;;;;13.34;77.47;101058.33;131091;1252;107522;-76
2023/09/08 03:32:39;;;;;;;11.70;9.80;;;;;;;13.32;77.28;101059.41;131093;1263;107692;-75
2023/09/08 03:35:45;;;;;;;15.10;9.60;;;;;;;13.28;77.18;101057.13;131037;1250;107892;-75
2023/09/08 03:38:51;;;;;;;13.20;9.60;;;;;;;13.24;77.37;101056.11;131095;1253;106508;-76
2023/09/08 03:41:56;;;;;;;13.30;9.90;;;;;;;13.21;77.39;101053.72;131038;1253;108475;-75
2023/09/08 03:45:02;;;;;;;12.50;9.80;;;;;;;13.20;77.49;101049.85;131047;1260;108408;-76
2023/09/08 03:48:08;;;;;;;12.70;10.70;;;;;;;13.23;77.64;101046.23;131095;1255;108685;-77
2023/09/08 03:51:14;;;;;;;11.20;10.00;;;;;;;13.24;77.61;101045.92;131006;1253;106548;-76
2023/09/08 03:54:20;;;;;;;12.50;10.60;;;;;;;13.26;77.72;101043.27;131045;1263;107672;-76
2023/09/08 03:57:25;;;;;;;12.70;10.40;;;;;;;13.23;77.43;101038.67;131041;1261;106613;-75
2023/09/08 04:00:31;;;;;;;12.50;10.20;;;;;;;13.22;77.67;101043.15;131074;1253;107610;-76
2023/09/08 04:03:36;;;;;;;11.20;9.70;;;;;;;13.17;77.60;101046.58;131205;1250;107124;-76
2023/09/08 04:06:44;;;;;;;11.00;8.90;;;;;;;13.14;77.58;101047.61;130987;1263;107066;-76
2023/09/08 04:09:49;;;;;;;11.50;9.10;;;;;;;13.13;77.60;101048.24;131055;1254;107256;-75
2023/09/08 04:12:55;;;;;;;12.20;9.90;;;;;;;13.16;77.66;101044.96;130926;1256;106410;-76
2023/09/08 04:16:00;;;;;;;11.50;10.20;;;;;;;13.17;77.66;101049.27;131008;1254;106665;-75
2023/09/08 04:19:06;;;;;;;11.10;9.80;;;;;;;13.18;77.65;101049.00;131054;1255;107717;-77
2023/09/08 04:22:12;;;;;;;11.70;10.00;;;;;;;13.20;77.75;101050.80;131033;1254;105628;-75
2023/09/08 04:25:18;;;;;;;13.30;10.70;;;;;;;13.20;77.76;101048.45;131005;1262;106943;-75
2023/09/08 04:28:23;;;;;;;13.10;10.60;;;;;;;13.21;77.88;101046.18;130968;1254;106499;-76
2023/09/08 04:31:29;;;;;;;13.60;9.70;;;;;;;13.24;77.93;101046.14;131242;1251;107420;-76
2023/09/08 04:34:34;;;;;;;11.90;9.30;;;;;;;13.27;78.02;101047.95;131106;1263;108704;-76
2023/09/08 04:37:40;;;;;;;10.60;9.20;;;;;;;13.35;78.02;101050.56;131071;1258;107630;-76
2023/09/08 04:40:47;;;;;;;11.00;9.10;;;;;;;13.47;78.21;101046.21;131097;1253;107662;-76
2023/09/08 04:43:55;;;;;;;12.00;10.30;;;;;;;13.55;78.08;101045.04;131136;1257;107025;-76
2023/09/08 04:47:01;;;;;;;11.00;9.80;;;;;;;13.62;78.20;101043.05;131031;1254;106560;-76
2023/09/08 04:50:09;;;;;;;12.50;9.70;;;;;;;13.72;78.31;101044.38;131140;1253;107932;-76
2023/09/08 04:53:15;;;;;;;12.90;10.60;;;;;;;13.82;78.35;101040.63;131067;1255;107939;-75
2023/09/08 04:56:21;;;;;;;13.50;9.40;;;;;;;13.90;78.34;101039.89;132385;1249;107054;-77
2023/09/08 04:59:27;;;;;;;10.50;9.00;;;;;;;14.00;78.37;101038.92;131332;1253;109009;-75
2023/09/08 05:02:34;;;;;;;10.90;8.90;;;;;;;14.13;78.34;101034.34;131044;1254;108583;-77
2023/09/08 05:05:40;;;;;;;12.80;9.70;;;;;;;14.27;78.26;101032.05;131131;1260;108199;-76
2023/09/08 05:08:46;;;;;;;11.90;10.10;;;;;;;14.41;78.53;101025.95;131129;1254;106930;-75
2023/09/08 05:11:51;;;;;;;12.30;9.80;;;;;;;14.55;78.64;101031.68;131063;1253;105902;-76
2023/09/08 05:15:06;;;;;;;11.50;10.00;;;;;;;14.70;78.62;101031.42;131141;1263;107756;-79
2023/09/08 05:18:12;;;;;;;12.40;10.30;;;;;;;14.83;78.42;101034.30;131174;1264;108172;-76
2023/09/08 05:21:18;;;;;;;10.10;8.50;;;;;;;14.90;78.57;101028.35;131044;1259;107840;-81
2023/09/08 05:24:26;;;;;;;10.10;8.70;;;;;;;14.98;78.59;101033.26;130983;1253;106577;-79
2023/09/08 05:27:32;;;;;;;12.60;9.60;;;;;;;15.07;78.82;101030.02;131033;1263;107573;-77
2023/09/08 05:30:38;;;;;;;11.30;9.50;;;;;;;15.19;79.06;101033.19;131021;1253;106450;-77
2023/09/08 05:33:44;;;;;;;13.40;9.50;;;;;;;15.31;79.39;101032.60;131124;1263;107670;-77
2023/09/08 05:36:50;;;;;;;13.40;10.40;;;;;;;15.42;79.49;101031.08;131129;1253;107823;-78
2023/09/08 05:39:56;;;;;;;12.10;10.30;;;;;;;15.53;79.84;101031.21;131009;1251;106717;-77
2023/09/08 05:43:03;;;;;;;12.80;11.40;;;;;;;15.61;80.23;101023.33;131079;1265;107992;-77
2023/09/08 05:46:08;;;;;;;12.50;10.00;;;;;;;15.71;80.55;101025.30;131014;1253;107595;-77
2023/09/08 05:49:15;;;;;;;18.80;14.40;;;;;;;15.84;80.89;101025.31;131114;1253;106553;-77
2023/09/08 05:52:22;;;;;;;19.30;14.50;;;;;;;16.00;81.55;101024.13;131041;1253;107010;-78
2023/09/08 05:55:28;;;;;;;16.80;15.00;;;;;;;16.16;81.71;101022.45;131142;1249;106590;-77
2023/09/08 05:58:34;;;;;;;14.60;12.80;;;;;;;16.31;82.14;101024.42;131601;1253;107552;-76
2023/09/08 06:01:40;;;;;;;20.20;14.30;;;;;;;16.43;82.37;101025.15;131082;1263;107950;-77
2023/09/08 06:04:47;;;;;;;18.80;15.30;;;;;;;16.58;82.56;101024.04;131056;1252;106459;-76
2023/09/08 06:07:53;;;;;;;16.70;14.10;;;;;;;16.73;82.74;101021.28;131056;1263;106654;-78
2023/09/08 06:10:59;;;;;;;17.10;15.20;;;;;;;16.87;82.86;101019.07;131010;1251;106761;-76
2023/09/08 06:14:05;;;;;;;16.80;13.60;;;;;;;16.98;83.00;101019.19;130968;1260;107750;-77
2023/09/08 06:17:15;;;;;;;16.50;14.10;;;;;;;17.10;83.08;101020.15;130951;1254;107128;-77
2023/09/08 06:20:21;;;;;;;16.80;14.20;;;;;;;17.22;83.27;101019.28;131034;1251;107253;-77
2023/09/08 06:23:27;;;;;;;17.30;14.40;;;;;;;17.37;83.51;101021.92;131047;1263;107762;-77
2023/09/08 06:26:33;;;;;;;17.60;15.30;;;;;;;17.50;83.69;101023.04;131005;1253;106482;-77
2023/09/08 06:29:39;;;;;;;16.40;13.30;;;;;;;17.64;83.83;101022.91;131011;1253;106831;-77
2023/09/08 06:32:45;;;;;;;16.30;13.60;;;;;;;17.75;83.89;101020.18;131079;1265;107138;-77
2023/09/08 06:35:53;;;;;;;15.90;14.20;;;;;;;17.87;83.89;101024.16;131027;1252;107114;-77
2023/09/08 06:39:00;;;;;;;21.70;14.90;;;;;;;18.00;83.94;101024.89;131071;1255;108260;-77
2023/09/08 06:42:06;;;;;;;16.30;14.30;;;;;;;18.14;83.95;101023.15;131068;1254;107004;-78
2023/09/08 06:45:14;;;;;;;18.20;15.00;;;;;;;18.26;84.13;101021.84;131064;1253;106907;-77
2023/09/08 06:48:20;;;;;;;17.60;14.00;;;;;;;18.37;84.04;101021.29;131131;1263;107766;-77
2023/09/08 06:51:26;;;;;;;12.80;11.50;;;;;;;18.47;84.12;101025.66;131015;1254;106937;-77
2023/09/08 06:54:32;;;;;;;15.20;12.40;;;;;;;18.58;83.92;101023.08;131100;1256;107839;-77
2023/09/08 06:57:38;;;;;;;14.20;12.60;;;;;;;18.70;83.91;101023.73;131030;1254;107729;-77
2023/09/08 07:00:44;;;;;;;16.90;14.10;;;;;;;18.80;83.74;101020.30;131020;1255;106756;-82
2023/09/08 07:03:50;;;;;;;14.50;13.00;;;;;;;18.92;83.83;101018.96;131127;1251;106699;-77
2023/09/08 07:06:56;;;;;;;15.10;12.80;;;;;;;19.00;83.69;101017.70;131068;1253;108604;-78
2023/09/08 07:10:02;;;;;;;14.90;12.50;;;;;;;19.09;83.58;101016.51;131048;1254;106791;-77
2023/09/08 07:13:08;;;;;;;14.70;12.30;;;;;;;19.20;83.91;101013.67;130987;1254;107769;-78
2023/09/08 07:16:13;;;;;;;15.10;11.90;;;;;;;19.33;83.46;101016.95;131031;1253;106878;-78
2023/09/08 07:19:19;;;;;;;13.50;12.10;;;;;;;19.44;83.51;101016.84;131088;1263;107708;-78
2023/09/08 07:22:25;;;;;;;14.60;11.80;;;;;;;19.52;83.29;101014.67;130998;1251;107910;-78
2023/09/08 07:25:31;;;;;;;12.50;10.80;;;;;;;19.61;83.34;101015.75;131092;1254;107102;-78
2023/09/08 07:28:37;;;;;;;13.30;10.50;;;;;;;19.69;83.18;101015.42;131119;1266;107942;-79
2023/09/08 07:31:44;;;;;;;12.40;11.10;;;;;;;19.79;83.26;101020.70;131128;1250;106911;-78
2023/09/08 07:34:54;;;;;;;12.70;10.80;;;;;;;19.91;83.18;101024.23;131124;1254;107685;-78
2023/09/08 07:38:00;;;;;;;14.70;10.50;;;;;;;20.02;83.11;101021.27;131154;1254;108707;-77
2023/09/08 07:41:06;;;;;;;14.00;10.90;;;;;;;20.12;83.05;101023.17;131030;1251;107715;-77
2023/09/08 07:44:13;;;;;;;11.60;10.20;;;;;;;20.22;82.97;101025.37;131067;1253;106725;-78
2023/09/08 07:47:19;;;;;;;13.00;9.20;;;;;;;20.30;82.86;101025.62;130999;1254;107631;-77
2023/09/08 07:50:26;;;;;;;10.50;8.90;;;;;;;20.37;82.75;101021.25;131024;1251;106604;-78
2023/09/08 07:53:33;;;;;;;11.20;9.30;;;;;;;20.48;82.58;101020.95;131077;1255;106857;-77
2023/09/08 07:56:40;;;;;;;10.40;9.30;;;;;;;20.59;82.46;101022.02;131046;1252;108527;-77
2023/09/08 07:59:46;;;;;;;11.90;9.40;;;;;;;20.73;82.57;101021.83;131084;1263;106747;-77
2023/09/08 08:02:54;;;;;;;11.10;9.20;;;;;;;20.84;81.95;101020.73;131009;1251;107545;-77
2023/09/08 08:06:00;;;;;;;11.20;9.40;;;;;;;20.92;81.76;101022.41;131120;1263;107416;-77
2023/09/08 08:09:06;;;;;;;9.50;8.10;;;;;;;20.98;81.78;101019.64;131030;1253;108695;-77
2023/09/08 08:12:11;;;;;;;8.30;7.40;;;;;;;21.06;81.51;101011.34;131016;1251;108640;-77
2023/09/08 08:15:21;;;;;;;9.70;7.50;;;;;;;21.16;81.33;101014.30;131056;1251;106936;-77
2023/09/08 08:18:26;;;;;;;11.00;8.30;;;;;;;21.25;81.05;101014.40;131151;1263;106305;-78
2023/09/08 08:21:32;;;;;;;9.00;8.10;;;;;;;21.37;81.38;101013.86;131112;1254;107408;-78
2023/09/08 08:24:38;;;;;;;10.30;8.40;;;;;;;21.51;81.26;101012.73;131111;1253;107677;-77
2023/09/08 08:27:44;;;;;;;8.50;7.60;;;;;;;21.62;80.82;101015.02;131148;1254;107918;-78
2023/09/08 08:30:50;;;;;;;10.40;8.10;;;;;;;21.71;80.55;101016.31;131043;1253;107756;-78
2023/09/08 08:33:55;;;;;;;9.40;7.50;;;;;;;21.77;80.37;101013.23;131116;1250;106708;-78
2023/09/08 08:37:01;;;;;;;8.50;6.90;;;;;;;21.83;79.71;101011.46;131103;1251;106179;-78
2023/09/08 08:40:10;;;;;;;9.00;6.40;;;;;;;21.91;79.89;101007.54;130998;1254;107310;-78
2023/09/08 08:43:16;;;;;;;7.90;6.30;;;;;;;22.01;80.13;101009.79;131098;1251;107728;-78
2023/09/08 08:46:24;;;;;;;8.70;6.60;;;;;;;22.12;79.77;101004.92;131032;1251;108538;-80
2023/09/08 08:49:30;;;;;;;8.60;6.50;;;;;;;22.23;79.28;101007.52;131226;1250;106576;-80
2023/09/08 08:52:36;;;;;;;7.10;6.40;;;;;;;22.32;78.73;101010.27;131120;1254;107877;-78
2023/09/08 08:55:42;;;;;;;9.70;6.30;;;;;;;22.38;78.32;101008.97;131065;1250;106662;-78
2023/09/08 08:58:48;;;;;;;9.90;6.80;;;;;;;22.46;78.49;101006.60;131118;1251;108726;-78
2023/09/08 09:01:54;;;;;;;7.40;6.40;;;;;;;22.52;78.24;101007.01;131033;1250;107672;-78
2023/09/08 09:05:00;;;;;;;8.50;6.80;;;;;;;22.56;77.98;101003.48;131077;1253;106654;-78
2023/09/08 09:08:09;;;;;;;10.40;6.80;;;;;;;22.62;77.81;101003.20;131105;1255;106753;-78
2023/09/08 09:11:15;;;;;;;10.10;6.90;;;;;;;22.70;77.67;100999.15;131035;1253;106593;-78
2023/09/08 09:14:22;;;;;;;8.00;6.40;;;;;;;22.75;77.59;100998.39;131015;1253;106840;-78
2023/09/08 09:17:28;;;;;;;6.00;5.40;;;;;;;22.80;76.61;100996.98;131076;1260;107691;-78
2023/09/08 09:20:34;;;;;;;7.90;6.30;;;;;;;22.85;76.22;100995.33;131074;1253;107702;-78
2023/09/08 09:23:40;;;;;;;6.80;5.80;;;;;;;22.93;76.23;100993.79;131091;1253;108006;-78
2023/09/08 09:26:46;;;;;;;5.70;5.00;;;;;;;23.05;75.94;100989.10;131087;1255;107704;-78
2023/09/08 09:29:52;;;;;;;7.90;5.80;;;;;;;23.13;75.37;100985.17;131093;1263;107681;-78
2023/09/08 09:33:07;;;;;;;6.50;5.10;;;;;;;23.22;74.57;100980.77;131123;1255;107645;-78
2023/09/08 09:36:22;;;;;;;6.60;5.20;;;;;;;23.31;74.77;100980.66;131124;1254;107873;-78
2023/09/08 09:39:28;;;;;;;6.50;5.60;;;;;;;23.46;74.19;100982.61;131088;1254;107773;-78
2023/09/08 09:42:33;;;;;;;6.60;5.20;;;;;;;23.52;73.28;100977.48;131035;1251;108703;-79
2023/09/08 09:45:40;;;;;;;7.60;5.20;;;;;;;23.60;72.71;100979.73;131059;1254;106848;-78
2023/09/08 09:48:46;;;;;;;6.50;5.40;;;;;;;23.75;71.31;100973.47;131069;1253;108830;-78
2023/09/08 09:51:54;;;;;;;7.40;5.20;;;;;;;23.94;69.97;100972.01;131035;1251;106794;-78
2023/09/08 09:55:00;;;;;;;6.90;5.20;;;;;;;24.17;70.38;100972.84;131015;1251;107433;-80
2023/09/08 09:58:07;;;;;;;6.10;5.40;;;;;;;24.38;70.29;100974.33;131148;1254;106973;-78
2023/09/08 10:01:13;;;;;;;6.30;5.50;;;;;;;24.55;69.74;100969.88;131085;1255;108693;-78
2023/09/08 10:04:19;;;;;;;6.40;5.50;;;;;;;24.65;69.48;100964.59;131129;1254;107736;-78
2023/09/08 10:07:26;;;;;;;5.80;5.30;;;;;;;24.74;68.90;100962.52;130951;1254;107776;-79
2023/09/08 10:10:35;;;;;;;5.90;5.20;;;;;;;24.81;68.69;100961.20;131019;1254;108548;-79
2023/09/08 10:13:44;;;;;;;6.50;5.30;;;;;;;24.87;68.15;100959.02;131083;1254;106587;-79
2023/09/08 10:16:57;;;;;;;5.70;5.20;;;;;;;24.91;67.82;100958.75;131009;1253;107154;-79
2023/09/08 10:20:11;;;;;;;7.20;6.00;;;;;;;24.95;67.55;100951.05;131102;1254;107086;-78
2023/09/08 10:23:23;;;;;;;6.30;5.00;;;;;;;24.97;66.54;100952.86;131160;1254;108291;-79
2023/09/08 10:26:31;;;;;;;5.80;5.20;;;;;;;24.99;65.41;100950.23;131111;1253;108727;-79
2023/09/08 10:29:37;;;;;;;5.70;4.80;;;;;;;25.04;66.18;100948.62;130956;1254;108514;-79
2023/09/08 10:32:43;;;;;;;5.40;4.90;;;;;;;25.10;65.82;100944.37;131019;1251;106437;-79
2023/09/08 10:35:49;;;;;;;6.00;4.70;;;;;;;25.13;65.44;100945.20;131140;1254;107762;-79
2023/09/08 10:38:56;;;;;;;5.10;4.60;;;;;;;25.14;64.85;100945.45;131023;1254;108599;-79
2023/09/08 10:42:25;;;;;;;5.80;5.20;;;;;;;25.13;64.49;100942.48;131044;1252;107778;-79
2023/09/08 10:45:32;;;;;;;5.20;4.60;;;;;;;25.16;63.86;100939.08;131042;1251;108383;-79
2023/09/08 10:48:44;;;;;;;5.30;4.80;;;;;;;25.19;63.49;100939.73;131098;1250;109587;-78
2023/09/08 10:51:51;;;;;;;6.40;4.60;;;;;;;25.24;63.23;100935.95;130992;1252;109175;-79
2023/09/08 10:54:58;;;;;;;5.80;4.70;;;;;;;25.29;63.04;100929.48;131057;1253;108145;-78
2023/09/08 10:58:06;;;;;;;6.10;4.90;;;;;;;25.30;62.37;100929.02;130979;1252;107742;-79
2023/09/08 11:01:17;;;;;;;5.70;4.70;;;;;;;25.31;62.35;100926.23;131160;1253;107752;-79
2023/09/08 11:04:24;;;;;;;5.80;4.70;;;;;;;25.34;62.20;100927.02;131113;1254;107997;-79
2023/09/08 11:07:30;;;;;;;4.60;4.20;;;;;;;25.38;61.78;100917.63;131041;1254;106861;-79
2023/09/08 11:10:40;;;;;;;5.30;4.80;;;;;;;25.36;61.71;100916.60;131064;1255;107927;-79
2023/09/08 11:13:46;;;;;;;5.40;4.90;;;;;;;25.31;61.41;100918.27;131028;1249;107686;-79
2023/09/08 11:16:52;;;;;;;5.20;4.70;;;;;;;25.18;61.10;100916.45;131035;1254;108744;-79
2023/09/08 11:19:58;;;;;;;6.70;4.60;;;;;;;25.12;60.89;100919.65;131269;1251;108608;-80
2023/09/08 11:23:04;;;;;;;5.80;4.80;;;;;;;25.09;60.45;100911.73;131112;1253;107991;-79
2023/09/08 11:26:13;;;;;;;5.10;4.60;;;;;;;25.09;60.18;100910.35;131220;1252;107032;-78
2023/09/08 11:30:00;;;;;;;5.20;4.70;;;;;;;25.08;60.24;100911.88;131040;1253;108543;-78
2023/09/08 11:33:24;;;;;;;5.10;4.60;;;;;;;25.07;60.13;100908.40;131097;1253;109012;-78
2023/09/08 11:36:31;;;;;;;5.90;5.30;;;;;;;25.10;60.09;100901.85;131156;1249;105997;-78
2023/09/08 11:39:40;;;;;;;5.20;4.70;;;;;;;25.12;59.58;100904.81;131101;1252;106647;-78
2023/09/08 11:42:46;;;;;;;5.10;4.60;;;;;;;25.14;59.05;100902.47;131138;1254;106717;-78
2023/09/08 11:45:52;;;;;;;5.70;5.10;;;;;;;25.14;58.78;100901.80;131000;1255;107389;-78
2023/09/08 11:48:59;;;;;;;5.30;4.70;;;;;;;25.13;58.47;100899.30;131072;1256;108421;-78
2023/09/08 11:52:06;;;;;;;5.40;4.90;;;;;;;25.12;58.23;100897.55;131108;1254;107590;-78
2023/09/08 11:55:12;;;;;;;6.70;5.00;;;;;;;25.15;58.19;100893.98;131057;1253;107555;-78
2023/09/08 11:58:19;;;;;;;5.10;4.60;;;;;;;25.14;57.63;100889.40;131083;1265;108146;-78
2023/09/08 12:01:25;;;;;;;5.70;4.70;;;;;;;25.14;54.98;100882.18;131269;1253;107498;-78
2023/09/08 12:04:32;;;;;;;5.30;4.80;;;;;;;25.15;53.70;100885.60;131170;1249;108658;-81
2023/09/08 12:07:40;;;;;;;4.90;4.50;;;;;;;25.19;55.48;100879.31;131052;1249;107382;-77
2023/09/08 12:10:45;;;;;;;5.20;4.30;;;;;;;25.19;55.54;100873.02;131086;1252;110117;-78
2023/09/08 12:13:51;;;;;;;4.70;4.30;;;;;;;25.19;55.89;100871.12;131139;1250;107407;-78
2023/09/08 12:17:09;;;;;;;6.20;4.40;;;;;;;25.20;53.85;100868.68;131021;1252;108619;-78
2023/09/08 12:20:18;;;;;;;6.40;4.90;;;;;;;25.20;54.81;100865.41;131100;1253;107413;-78
2023/09/08 12:23:24;;;;;;;9.60;4.50;;;;;;;25.22;55.66;100864.86;131010;1256;107521;-78
2023/09/08 12:26:31;;;;;;;4.80;4.40;;;;;;;25.25;56.14;100861.35;131150;1254;106658;-78
2023/09/08 12:29:36;;;;;;;5.10;4.60;;;;;;;25.27;55.89;100856.77;131228;1249;107229;-78
2023/09/08 12:32:41;;;;;;;4.90;4.40;;;;;;;25.27;55.82;100853.59;130996;1254;107501;-78
2023/09/08 12:35:48;;;;;;;6.10;4.20;;;;;;;25.26;55.58;100849.03;131143;1252;107562;-78
2023/09/08 12:38:54;;;;;;;4.90;4.40;;;;;;;25.22;55.37;100847.39;131120;1253;109232;-78
2023/09/08 12:41:59;;;;;;;5.90;4.40;;;;;;;25.21;55.34;100844.33;131039;1253;107379;-78
2023/09/08 12:45:06;;;;;;;5.10;4.10;;;;;;;25.19;55.15;100843.11;131180;1252;107564;-78
2023/09/08 12:48:12;;;;;;;4.60;4.20;;;;;;;25.18;55.35;100842.63;131119;1254;108609;-78
2023/09/08 12:51:17;;;;;;;5.00;4.30;;;;;;;25.17;54.02;100836.38;131181;1253;107849;-78
2023/09/08 12:54:23;;;;;;;5.00;4.50;;;;;;;25.18;54.19;100837.11;130893;1254;252120;-78
2023/09/08 12:57:29;;;;;;;6.50;4.30;;;;;;;25.17;54.32;100833.60;131140;1252;107513;-78
2023/09/08 13:00:35;;;;;;;4.70;4.20;;;;;;;25.18;54.41;100830.44;131086;1252;107258;-78
2023/09/08 13:03:41;;;;;;;5.20;4.70;;;;;;;25.18;54.24;100831.10;131100;1250;107360;-78
2023/09/08 13:06:46;;;;;;;4.90;4.50;;;;;;;25.15;51.51;100830.82;131149;1249;107252;-78
2023/09/08 13:09:52;;;;;;;5.50;4.90;;;;;;;25.13;51.03;100829.73;131100;1250;108145;-78
2023/09/08 13:12:57;;;;;;;5.00;4.40;;;;;;;25.16;52.72;100821.72;131018;1253;107428;-78
2023/09/08 13:16:03;;;;;;;4.90;4.20;;;;;;;25.17;52.92;100823.77;131085;1255;107520;-78
2023/09/08 13:19:08;;;;;;;8.20;4.20;;;;;;;25.17;53.08;100821.91;131371;1253;107284;-79
2023/09/08 13:22:14;;;;;;;4.50;4.10;;;;;;;25.20;53.13;100821.77;131136;1250;107596;-79
2023/09/08 13:25:20;;;;;;;4.80;4.10;;;;;;;25.20;53.13;100820.63;131109;1250;107256;-79
2023/09/08 13:28:25;;;;;;;6.60;4.20;;;;;;;25.18;52.83;100819.59;131075;1249;108301;-80
2023/09/08 13:31:30;;;;;;;4.50;4.10;;;;;;;25.17;52.82;100817.81;131115;1254;106197;-80
2023/09/08 13:34:38;;;;;;;4.50;4.10;;;;;;;25.18;52.94;100813.14;131101;1252;107506;-80
2023/09/08 13:37:43;;;;;;;5.60;4.40;;;;;;;25.18;52.80;100810.73;131009;1253;107408;-79
2023/09/08 13:40:49;;;;;;;4.70;4.30;;;;;;;25.18;52.29;100802.65;131105;1249;107279;-79
2023/09/08 13:43:54;;;;;;;5.30;4.50;;;;;;;25.19;52.24;100806.67;131031;1249;107543;-80
2023/09/08 13:47:00;;;;;;;5.00;4.50;;;;;;;25.19;52.25;100808.10;131070;1250;108807;-79
2023/09/08 13:50:09;;;;;;;4.80;4.10;;;;;;;25.16;52.17;100806.05;131063;1255;106774;-79
2023/09/08 13:53:14;;;;;;;5.40;4.20;;;;;;;25.13;52.10;100806.48;131343;1249;108483;-79
2023/09/08 13:56:19;;;;;;;5.70;4.30;;;;;;;25.10;51.93;100804.93;131370;1252;107201;-79
2023/09/08 13:59:25;;;;;;;5.10;4.20;;;;;;;25.07;51.63;100804.52;131374;1252;107332;-81